Time;durP1;ratioP1;P1;durP2;ratioP2;P2;SDS_P1;SDS_P2;PMS_P1;PMS_P2;Temp;Humidity;BMP_temperature;BMP_pressure;BME280_temperature;BME280_humidity;BME280_pressure;Samples;Min_cycle;Max_cycle;Signal;HPM_P1;HPM_P2
2022/06/11 00:01:34;;;;;;;9.15;5.88;;;;;;;;;;5135408;27;20033;-71
2022/06/11 00:04:02;;;;;;;8.13;6.28;;;;;;;;;;5135626;27;20110;-71
2022/06/11 00:06:30;;;;;;;11.77;7.57;;;;;;;;;;5135423;27;20072;-71
2022/06/11 00:08:56;;;;;;;12.60;8.90;;;;;;;;;;5135173;27;20065;-71
2022/06/11 00:11:21;;;;;;;15.43;10.50;;;;;;;;;;5135372;27;20011;-71
2022/06/11 00:13:47;;;;;;;17.35;11.15;;;;;;;;;;5135225;27;20334;-71
2022/06/11 00:16:14;;;;;;;15.43;10.60;;;;;;;;;;5117010;27;20023;-71
2022/06/11 00:18:43;;;;;;;14.90;10.07;;;;;;;;;;5135073;27;20064;-71
2022/06/11 00:21:09;;;;;;;12.95;9.35;;;;;;;;;;5135278;27;20031;-71
2022/06/11 00:23:35;;;;;;;10.70;8.38;;;;;;;;;;5135329;27;20485;-71
2022/06/11 00:26:01;;;;;;;9.98;7.93;;;;;;;;;;5135258;27;20019;-71
2022/06/11 00:28:26;;;;;;;12.10;7.93;;;;;;;;;;5134619;27;20074;-71
2022/06/11 00:30:52;;;;;;;9.55;7.32;;;;;;;;;;5134915;27;20081;-71
2022/06/11 00:33:17;;;;;;;8.60;6.53;;;;;;;;;;5134996;28;20027;-70
2022/06/11 00:35:43;;;;;;;11.05;6.72;;;;;;;;;;5135211;28;20019;-71
2022/06/11 00:38:10;;;;;;;13.57;8.60;;;;;;;;;;5134792;28;20118;-71
2022/06/11 00:40:36;;;;;;;8.23;7.43;;;;;;;;;;5134815;28;20102;-71
2022/06/11 00:43:04;;;;;;;8.02;6.22;;;;;;;;;;5134740;28;20019;-70
2022/06/11 00:45:30;;;;;;;6.07;5.50;;;;;;;;;;5135213;28;20357;-71
2022/06/11 00:47:58;;;;;;;6.85;6.00;;;;;;;;;;5135074;28;20116;-70
2022/06/11 00:50:26;;;;;;;7.18;5.80;;;;;;;;;;5134830;28;20360;-70
2022/06/11 00:52:52;;;;;;;6.90;6.28;;;;;;;;;;5134900;28;20063;-71
2022/06/11 00:55:17;;;;;;;7.75;6.82;;;;;;;;;;5134876;28;20046;-71
2022/06/11 00:57:48;;;;;;;6.82;6.13;;;;;;;;;;5134913;28;20530;-71
2022/06/11 01:00:18;;;;;;;12.20;6.90;;;;;;;;;;5134595;28;20450;-70
2022/06/11 01:02:44;;;;;;;7.13;6.15;;;;;;;;;;5134625;28;20424;-71
2022/06/11 01:05:13;;;;;;;7.65;6.35;;;;;;;;;;5134860;28;20038;-71
2022/06/11 01:07:57;;;;;;;6.82;6.05;;;;;;;;;;5134662;28;20016;-71
2022/06/11 01:10:28;;;;;;;7.25;6.00;;;;;;;;;;5134406;28;20493;-71
2022/06/11 01:13:00;;;;;;;8.63;6.75;;;;;;;;;;5134472;28;20019;-71
2022/06/11 01:15:25;;;;;;;5.47;5.07;;;;;;;;;;5134509;28;20027;-70
2022/06/11 01:17:50;;;;;;;4.43;4.07;;;;;;;;;;5134725;28;20080;-71
2022/06/11 01:20:26;;;;;;;4.70;4.30;;;;;;;;;;5134381;28;20038;-70
2022/06/11 01:23:10;;;;;;;4.63;4.25;;;;;;;;;;5134631;28;20106;-71
2022/06/11 01:25:45;;;;;;;4.35;3.92;;;;;;;;;;5134779;28;20023;-71
2022/06/11 01:28:10;;;;;;;3.92;3.63;;;;;;;;;;5134258;28;20031;-72
2022/06/11 01:30:49;;;;;;;4.45;4.05;;;;;;;;;;5134594;28;20042;-72
2022/06/11 01:33:35;;;;;;;5.07;4.43;;;;;;;;;;5116127;28;20366;-70
2022/06/11 01:36:19;;;;;;;6.20;4.72;;;;;;;;;;5134014;28;20039;-70
2022/06/11 01:38:59;;;;;;;6.45;5.25;;;;;;;;;;5133054;28;20027;-71
2022/06/11 01:41:40;;;;;;;5.82;4.97;;;;;;;;;;5132928;28;20027;-71
2022/06/11 01:44:07;;;;;;;5.55;4.95;;;;;;;;;;5135586;27;20054;-72
2022/06/11 01:46:35;;;;;;;5.47;4.85;;;;;;;;;;5137187;27;20091;-71
2022/06/11 01:49:04;;;;;;;5.95;4.75;;;;;;;;;;5138021;27;20033;-71
2022/06/11 01:51:48;;;;;;;5.35;4.85;;;;;;;;;;5137914;27;20031;-70
2022/06/11 01:54:25;;;;;;;4.93;4.53;;;;;;;;;;5138105;27;20038;-71
2022/06/11 01:56:56;;;;;;;4.35;3.78;;;;;;;;;;5137125;27;20031;-71
2022/06/11 01:59:30;;;;;;;4.47;4.10;;;;;;;;;;5138029;27;20042;-70
2022/06/11 02:02:07;;;;;;;6.85;4.57;;;;;;;;;;5137445;27;20035;-71
2022/06/11 02:04:46;;;;;;;6.07;5.20;;;;;;;;;;5137593;27;20381;-71
2022/06/11 02:07:17;;;;;;;5.15;4.75;;;;;;;;;;5137322;27;20031;-70
2022/06/11 02:09:54;;;;;;;4.28;3.97;;;;;;;;;;5137633;27;20022;-69
2022/06/11 02:12:28;;;;;;;5.68;3.92;;;;;;;;;;5137532;27;20029;-69
2022/06/11 02:14:56;;;;;;;4.35;4.00;;;;;;;;;;5137536;27;20336;-70
2022/06/11 02:17:23;;;;;;;4.05;3.83;;;;;;;;;;5137202;27;20413;-69
2022/06/11 02:19:52;;;;;;;7.60;4.80;;;;;;;;;;5137280;27;20038;-69
2022/06/11 02:22:23;;;;;;;6.85;5.15;;;;;;;;;;5137260;27;20023;-69
2022/06/11 02:24:56;;;;;;;4.00;3.80;;;;;;;;;;5119183;27;20034;-69
2022/06/11 02:27:27;;;;;;;4.00;3.70;;;;;;;;;;5137178;27;20434;-69
2022/06/11 02:29:54;;;;;;;4.25;3.88;;;;;;;;;;5136758;27;20378;-69
2022/06/11 02:32:20;;;;;;;3.95;3.65;;;;;;;;;;5137188;27;20038;-69
2022/06/11 02:34:48;;;;;;;4.28;3.95;;;;;;;;;;5137054;27;20026;-71
2022/06/11 02:37:24;;;;;;;4.13;3.83;;;;;;;;;;5136524;27;20022;-71
2022/06/11 02:39:51;;;;;;;3.80;3.55;;;;;;;;;;5137124;27;20034;-71
2022/06/11 02:42:17;;;;;;;4.40;4.00;;;;;;;;;;5136743;27;20019;-71
2022/06/11 02:44:44;;;;;;;5.85;5.25;;;;;;;;;;5136843;27;20110;-71
2022/06/11 02:47:11;;;;;;;4.47;4.10;;;;;;;;;;5136266;27;20027;-71
2022/06/11 02:49:37;;;;;;;3.92;3.72;;;;;;;;;;5136595;27;20394;-71
2022/06/11 02:52:07;;;;;;;3.58;3.38;;;;;;;;;;5136725;27;20050;-71
2022/06/11 02:54:33;;;;;;;3.25;3.10;;;;;;;;;;5136495;27;20023;-71
2022/06/11 02:56:59;;;;;;;3.45;3.25;;;;;;;;;;5136127;27;20478;-70
2022/06/11 02:59:26;;;;;;;3.72;3.53;;;;;;;;;;5136525;27;20359;-70
2022/06/11 03:01:54;;;;;;;3.90;3.70;;;;;;;;;;5136891;27;20098;-69
2022/06/11 03:04:21;;;;;;;4.80;4.32;;;;;;;;;;5136337;27;20605;-70
2022/06/11 03:06:46;;;;;;;5.00;4.38;;;;;;;;;;5136441;27;20019;-70
2022/06/11 03:09:14;;;;;;;5.15;4.32;;;;;;;;;;5117751;27;20026;-70
2022/06/11 03:11:39;;;;;;;4.75;4.35;;;;;;;;;;5136494;27;20025;-70
2022/06/11 03:14:05;;;;;;;4.75;4.45;;;;;;;;;;5135990;27;20114;-70
2022/06/11 03:16:31;;;;;;;4.05;3.75;;;;;;;;;;5136092;27;20033;-70
2022/06/11 03:18:56;;;;;;;4.13;3.90;;;;;;;;;;5136435;27;20025;-69
2022/06/11 03:21:21;;;;;;;4.05;3.63;;;;;;;;;;5136367;27;20019;-69
2022/06/11 03:23:47;;;;;;;3.78;3.58;;;;;;;;;;5135900;27;20038;-70
2022/06/11 03:26:12;;;;;;;3.72;3.42;;;;;;;;;;5136124;27;20015;-69
2022/06/11 03:28:38;;;;;;;3.83;3.50;;;;;;;;;;5135767;27;20034;-70
2022/06/11 03:31:06;;;;;;;3.15;2.95;;;;;;;;;;5117625;27;20027;-70
2022/06/11 03:33:33;;;;;;;3.25;3.05;;;;;;;;;;5135794;27;20037;-71
2022/06/11 03:35:58;;;;;;;3.80;3.50;;;;;;;;;;5135430;27;20022;-70
2022/06/11 03:38:23;;;;;;;4.35;3.60;;;;;;;;;;5135971;27;20019;-70
2022/06/11 03:40:49;;;;;;;3.85;3.45;;;;;;;;;;5135789;27;20538;-71
2022/06/11 03:43:14;;;;;;;4.28;3.88;;;;;;;;;;5134781;27;20102;-70
2022/06/11 03:45:40;;;;;;;3.35;3.13;;;;;;;;;;5135374;27;20019;-70
2022/06/11 03:48:06;;;;;;;4.22;3.88;;;;;;;;;;5135488;27;20020;-70
2022/06/11 03:50:33;;;;;;;4.50;4.13;;;;;;;;;;5135110;27;20102;-70
2022/06/11 03:53:00;;;;;;;5.82;4.40;;;;;;;;;;5135249;27;20466;-70
2022/06/11 03:55:27;;;;;;;6.40;4.45;;;;;;;;;;5135165;27;20023;-71
2022/06/11 03:57:53;;;;;;;6.00;4.22;;;;;;;;;;5135543;27;20027;-71
2022/06/11 04:03:04;;;;;;;5.25;4.15;;;;;;;;;;5134964;27;20061;-71
2022/06/11 04:05:29;;;;;;;3.95;3.65;;;;;;;;;;5134710;27;20027;-71
2022/06/11 04:07:55;;;;;;;4.40;4.10;;;;;;;;;;5134835;27;20030;-71
2022/06/11 04:10:20;;;;;;;3.88;3.58;;;;;;;;;;5135296;27;20023;-71
2022/06/11 04:12:45;;;;;;;3.65;3.45;;;;;;;;;;5135679;27;20023;-70
2022/06/11 04:15:11;;;;;;;3.13;2.92;;;;;;;;;;5135230;27;20027;-71
2022/06/11 04:17:36;;;;;;;2.72;2.63;;;;;;;;;;5116456;27;20042;-72
2022/06/11 04:20:02;;;;;;;2.85;2.65;;;;;;;;;;5135038;27;20020;-71
2022/06/11 04:22:28;;;;;;;2.80;2.70;;;;;;;;;;5134785;27;20470;-70
2022/06/11 04:24:53;;;;;;;2.50;2.40;;;;;;;;;;5116779;28;20023;-71
2022/06/11 04:27:20;;;;;;;2.65;2.45;;;;;;;;;;5134138;27;20023;-71
2022/06/11 04:29:48;;;;;;;2.75;2.55;;;;;;;;;;5133854;28;20088;-70
2022/06/11 04:32:15;;;;;;;3.83;3.05;;;;;;;;;;5135019;28;20027;-70
2022/06/11 04:34:42;;;;;;;3.60;3.35;;;;;;;;;;5134745;28;20025;-70
2022/06/11 04:37:13;;;;;;;3.53;3.33;;;;;;;;;;5134200;28;20492;-70
2022/06/11 04:39:39;;;;;;;4.18;3.88;;;;;;;;;;5133675;28;20019;-71
2022/06/11 04:42:04;;;;;;;4.70;4.10;;;;;;;;;;5133513;28;20015;-70
2022/06/11 04:44:30;;;;;;;4.60;4.20;;;;;;;;;;5133999;28;20141;-70
2022/06/11 04:46:56;;;;;;;4.28;4.03;;;;;;;;;;5134559;28;20026;-70
2022/06/11 04:49:21;;;;;;;4.38;4.07;;;;;;;;;;5135127;28;20071;-70
2022/06/11 04:51:47;;;;;;;4.20;3.90;;;;;;;;;;5134882;28;20027;-70
2022/06/11 04:54:12;;;;;;;3.72;3.53;;;;;;;;;;5133965;28;20031;-69
2022/06/11 04:56:38;;;;;;;4.47;4.07;;;;;;;;;;5134732;28;20102;-69
2022/06/11 04:59:03;;;;;;;3.97;3.67;;;;;;;;;;5134781;28;20027;-69
2022/06/11 05:01:29;;;;;;;4.35;3.75;;;;;;;;;;5134154;28;20016;-70
2022/06/11 05:03:55;;;;;;;4.20;3.88;;;;;;;;;;5133192;28;20148;-70
2022/06/11 05:06:21;;;;;;;3.83;3.53;;;;;;;;;;5114901;28;20027;-70
2022/06/11 05:08:47;;;;;;;3.78;3.47;;;;;;;;;;5133215;28;20472;-71
2022/06/11 05:11:12;;;;;;;3.50;3.33;;;;;;;;;;5133116;28;20103;-70
2022/06/11 05:13:39;;;;;;;3.70;3.50;;;;;;;;;;5133168;28;20126;-71
2022/06/11 05:16:05;;;;;;;3.45;3.28;;;;;;;;;;5133050;28;20029;-71
2022/06/11 05:18:31;;;;;;;4.30;3.85;;;;;;;;;;5133881;27;20117;-70
2022/06/11 05:20:56;;;;;;;4.25;3.83;;;;;;;;;;5136789;27;20068;-70
2022/06/11 05:23:22;;;;;;;4.32;3.92;;;;;;;;;;5136935;27;20053;-70
2022/06/11 05:25:48;;;;;;;4.18;3.97;;;;;;;;;;5136917;27;20025;-71
2022/06/11 05:28:16;;;;;;;4.53;3.78;;;;;;;;;;5137082;27;20427;-70
2022/06/11 05:30:44;;;;;;;3.60;3.30;;;;;;;;;;5118228;27;20096;-71
2022/06/11 05:33:10;;;;;;;3.65;3.30;;;;;;;;;;5136720;27;20035;-71
2022/06/11 05:35:35;;;;;;;6.25;4.15;;;;;;;;;;5136733;27;20019;-70
2022/06/11 05:38:04;;;;;;;3.47;3.28;;;;;;;;;;5118300;27;20023;-70
2022/06/11 05:40:31;;;;;;;3.75;3.40;;;;;;;;;;5136807;27;20058;-70
2022/06/11 05:42:56;;;;;;;5.10;3.00;;;;;;;;;;5137022;27;20023;-66
2022/06/11 05:45:24;;;;;;;3.85;2.72;;;;;;;;;;5137608;27;20042;-70
2022/06/11 05:47:52;;;;;;;2.90;2.70;;;;;;;;;;5137292;27;20035;-70
2022/06/11 05:50:19;;;;;;;2.10;2.00;;;;;;;;;;5137202;27;20019;-70
2022/06/11 05:52:45;;;;;;;2.22;2.03;;;;;;;;;;5137394;27;20125;-71
2022/06/11 05:55:15;;;;;;;1.80;1.70;;;;;;;;;;5137637;27;20029;-70
2022/06/11 05:57:43;;;;;;;1.40;1.30;;;;;;;;;;5137503;27;20065;-71
2022/06/11 06:00:09;;;;;;;2.00;1.20;;;;;;;;;;5137460;27;20026;-70
2022/06/11 06:02:44;;;;;;;1.20;1.20;;;;;;;;;;5137663;27;20039;-70
2022/06/11 06:05:11;;;;;;;2.25;1.13;;;;;;;;;;5136888;27;20448;-70
2022/06/11 06:07:36;;;;;;;1.45;1.35;;;;;;;;;;5136922;27;20026;-70
2022/06/11 06:10:02;;;;;;;8.23;4.00;;;;;;;;;;5137164;27;20370;-70
2022/06/11 06:12:32;;;;;;;11.40;6.47;;;;;;;;;;5136365;27;20019;-70
2022/06/11 06:15:05;;;;;;;8.13;5.30;;;;;;;;;;5135201;27;20027;-70
2022/06/11 06:17:31;;;;;;;1.40;1.30;;;;;;;;;;5134452;27;20093;-70
2022/06/11 06:19:56;;;;;;;1.40;1.27;;;;;;;;;;5134282;27;20026;-70
2022/06/11 06:22:21;;;;;;;2.13;1.30;;;;;;;;;;5134336;27;20025;-70
2022/06/11 06:24:47;;;;;;;1.63;1.08;;;;;;;;;;5133939;27;20064;-70
2022/06/11 06:27:13;;;;;;;1.30;1.20;;;;;;;;;;5134249;27;20031;-70
2022/06/11 06:29:38;;;;;;;2.35;1.65;;;;;;;;;;5135052;27;20047;-69
2022/06/11 06:32:04;;;;;;;1.60;1.50;;;;;;;;;;5135606;27;20038;-70
2022/06/11 06:34:30;;;;;;;1.40;1.30;;;;;;;;;;5135916;27;20023;-70
2022/06/11 06:36:55;;;;;;;2.15;1.27;;;;;;;;;;5135698;27;20072;-70
2022/06/11 06:39:21;;;;;;;2.45;1.20;;;;;;;;;;5135420;27;20098;-70
2022/06/11 06:41:47;;;;;;;2.28;1.30;;;;;;;;;;5135449;27;20039;-70
2022/06/11 06:44:12;;;;;;;1.45;1.35;;;;;;;;;;5135402;27;20374;-71
2022/06/11 06:46:37;;;;;;;3.35;1.20;;;;;;;;;;5135331;27;20547;-71
2022/06/11 06:49:02;;;;;;;1.77;1.20;;;;;;;;;;5135364;27;20519;-71
2022/06/11 06:51:28;;;;;;;1.38;1.05;;;;;;;;;;5135255;27;20751;-71
2022/06/11 06:53:53;;;;;;;1.70;1.10;;;;;;;;;;5135328;27;20023;-71
2022/06/11 06:56:19;;;;;;;1.50;0.95;;;;;;;;;;5135229;27;20402;-73
2022/06/11 06:58:44;;;;;;;1.70;1.10;;;;;;;;;;5135088;27;20027;-70
2022/06/11 07:01:09;;;;;;;1.48;1.30;;;;;;;;;;5134945;27;20489;-71
2022/06/11 07:03:37;;;;;;;1.20;1.10;;;;;;;;;;5135038;27;20022;-70
2022/06/11 07:06:05;;;;;;;1.77;1.10;;;;;;;;;;5135057;27;20031;-71
2022/06/11 07:08:32;;;;;;;2.40;1.27;;;;;;;;;;5134955;27;20031;-71
2022/06/11 07:10:58;;;;;;;2.22;1.00;;;;;;;;;;5134893;27;20027;-70
2022/06/11 07:13:23;;;;;;;1.10;1.00;;;;;;;;;;5134783;27;20023;-70
2022/06/11 07:15:51;;;;;;;1.17;1.17;;;;;;;;;;5134801;27;20031;-71
2022/06/11 07:18:19;;;;;;;1.23;0.98;;;;;;;;;;5134773;27;20019;-70
2022/06/11 07:20:46;;;;;;;1.02;0.90;;;;;;;;;;5134572;27;20102;-73
2022/06/11 07:23:14;;;;;;;2.05;1.33;;;;;;;;;;5134899;27;20011;-72
2022/06/11 07:25:41;;;;;;;3.20;1.17;;;;;;;;;;5134557;27;20147;-72
2022/06/11 07:28:10;;;;;;;1.67;1.23;;;;;;;;;;5134567;27;20051;-72
2022/06/11 07:30:38;;;;;;;2.47;1.17;;;;;;;;;;5134374;27;20045;-72
2022/06/11 07:33:08;;;;;;;0.85;0.85;;;;;;;;;;5134799;27;20072;-72
2022/06/11 07:35:35;;;;;;;2.35;2.10;;;;;;;;;;5117367;27;20027;-72
2022/06/11 07:38:01;;;;;;;1.40;1.30;;;;;;;;;;5135383;27;20055;-72
2022/06/11 07:40:27;;;;;;;2.80;0.90;;;;;;;;;;5135142;27;20027;-72
2022/06/11 07:42:52;;;;;;;1.48;0.88;;;;;;;;;;5134710;27;20128;-73
2022/06/11 07:45:17;;;;;;;1.00;1.00;;;;;;;;;;5135275;27;20047;-72
2022/06/11 07:47:55;;;;;;;2.47;0.82;;;;;;;;;;5135229;27;20057;-72
2022/06/11 07:50:25;;;;;;;0.95;0.90;;;;;;;;;;5135208;27;20046;-73
2022/06/11 07:52:51;;;;;;;1.23;0.90;;;;;;;;;;5135209;27;20389;-72
2022/06/11 07:55:17;;;;;;;1.58;1.20;;;;;;;;;;5116740;27;20106;-72
2022/06/11 07:57:42;;;;;;;1.02;1.00;;;;;;;;;;5135012;27;20027;-72
2022/06/11 08:00:09;;;;;;;1.67;0.95;;;;;;;;;;5134964;27;20071;-72
2022/06/11 08:02:38;;;;;;;0.90;0.90;;;;;;;;;;5134982;27;20110;-72
2022/06/11 08:05:04;;;;;;;1.00;1.00;;;;;;;;;;5134880;27;20061;-72
2022/06/11 08:07:29;;;;;;;0.95;0.95;;;;;;;;;;5134874;27;20027;-72
2022/06/11 08:09:57;;;;;;;1.30;1.20;;;;;;;;;;5134974;27;20015;-72
2022/06/11 08:12:23;;;;;;;1.52;0.95;;;;;;;;;;5134819;27;20033;-72
2022/06/11 08:14:48;;;;;;;0.80;0.80;;;;;;;;;;5134833;27;20098;-73
2022/06/11 08:17:14;;;;;;;2.45;0.95;;;;;;;;;;5134920;27;20102;-72
2022/06/11 08:19:39;;;;;;;1.35;0.90;;;;;;;;;;5134668;27;20029;-72
2022/06/11 08:22:04;;;;;;;1.98;0.90;;;;;;;;;;5134790;27;20027;-72
2022/06/11 08:24:30;;;;;;;3.63;0.90;;;;;;;;;;5116261;27;20019;-72
2022/06/11 08:26:55;;;;;;;1.02;0.98;;;;;;;;;;5134540;27;20118;-72
2022/06/11 08:29:20;;;;;;;0.82;0.82;;;;;;;;;;5134519;27;20054;-72
2022/06/11 08:31:46;;;;;;;1.65;0.95;;;;;;;;;;5134639;27;20024;-72
2022/06/11 08:34:11;;;;;;;1.30;1.02;;;;;;;;;;5134598;28;20099;-72
2022/06/11 08:36:36;;;;;;;1.10;1.00;;;;;;;;;;5134521;28;20123;-72
2022/06/11 08:39:02;;;;;;;0.73;0.73;;;;;;;;;;5134226;28;20023;-72
2022/06/11 08:41:35;;;;;;;0.63;0.63;;;;;;;;;;5134688;28;20055;-72
2022/06/11 08:44:11;;;;;;;1.10;0.60;;;;;;;;;;5134522;28;20039;-72
2022/06/11 08:46:38;;;;;;;0.88;0.80;;;;;;;;;;5134378;28;20395;-72
2022/06/11 08:49:03;;;;;;;0.93;0.85;;;;;;;;;;5115236;28;20016;-71
2022/06/11 08:51:37;;;;;;;1.20;0.90;;;;;;;;;;5134340;28;20046;-72
2022/06/11 08:54:05;;;;;;;0.90;0.75;;;;;;;;;;5138337;27;20027;-72
2022/06/11 08:56:36;;;;;;;0.70;0.70;;;;;;;;;;5138556;27;20032;-72
2022/06/11 08:59:10;;;;;;;1.05;0.88;;;;;;;;;;5138995;27;20035;-75
2022/06/11 09:01:54;;;;;;;2.85;0.98;;;;;;;;;;5138796;27;20027;-74
2022/06/11 09:04:39;;;;;;;0.75;0.70;;;;;;;;;;5138684;27;20024;-74
2022/06/11 09:07:04;;;;;;;1.08;1.00;;;;;;;;;;5138790;27;20030;-73
2022/06/11 09:09:48;;;;;;;1.98;1.23;;;;;;;;;;5139149;27;20446;-74
2022/06/11 09:12:23;;;;;;;1.00;1.00;;;;;;;;;;5138819;27;20114;-73
2022/06/11 09:15:01;;;;;;;2.17;0.95;;;;;;;;;;5138949;27;20027;-73
2022/06/11 09:17:48;;;;;;;1.10;1.00;;;;;;;;;;5138514;27;20027;-73
2022/06/11 09:20:31;;;;;;;2.20;1.13;;;;;;;;;;5138577;27;20106;-73
2022/06/11 09:23:06;;;;;;;0.82;0.82;;;;;;;;;;5137564;27;20076;-74
2022/06/11 09:25:37;;;;;;;1.10;1.10;;;;;;;;;;5137084;27;20114;-73
2022/06/11 09:28:14;;;;;;;1.35;0.90;;;;;;;;;;5137194;27;20023;-75
2022/06/11 09:30:41;;;;;;;1.52;0.90;;;;;;;;;;5137172;27;20051;-74
2022/06/11 09:33:07;;;;;;;0.90;0.90;;;;;;;;;;5138276;27;20430;-73
2022/06/11 09:35:39;;;;;;;0.90;0.90;;;;;;;;;;5138058;27;20038;-72
2022/06/11 09:38:07;;;;;;;0.75;0.75;;;;;;;;;;5137967;27;20051;-72
2022/06/11 09:40:40;;;;;;;1.98;0.75;;;;;;;;;;5137835;27;20026;-71
2022/06/11 09:43:11;;;;;;;1.08;1.00;;;;;;;;;;5138331;27;20023;-72
2022/06/11 09:45:46;;;;;;;0.98;0.80;;;;;;;;;;5137431;27;20084;-72
2022/06/11 09:48:18;;;;;;;1.17;0.90;;;;;;;;;;5137998;27;20105;-71
2022/06/11 09:50:47;;;;;;;1.83;0.90;;;;;;;;;;5138209;27;20434;-72
2022/06/11 09:53:15;;;;;;;1.02;1.02;;;;;;;;;;5137467;27;20030;-72
2022/06/11 09:55:52;;;;;;;1.48;1.08;;;;;;;;;;5138083;27;20110;-72
2022/06/11 09:58:33;;;;;;;1.20;1.10;;;;;;;;;;5119172;27;20035;-72
2022/06/11 10:01:05;;;;;;;2.92;1.70;;;;;;;;;;5136089;27;20498;-72
2022/06/11 10:03:36;;;;;;;0.95;0.95;;;;;;;;;;5135484;27;20517;-72
2022/06/11 10:06:04;;;;;;;1.02;1.02;;;;;;;;;;5135946;27;20019;-70
2022/06/11 10:08:29;;;;;;;0.77;0.77;;;;;;;;;;5137261;27;20019;-72
2022/06/11 10:10:56;;;;;;;1.40;1.30;;;;;;;;;;5137115;27;20363;-72
2022/06/11 10:13:33;;;;;;;2.38;1.00;;;;;;;;;;5136878;27;20106;-72
2022/06/11 10:16:02;;;;;;;1.50;1.40;;;;;;;;;;5137693;27;20470;-71
2022/06/11 10:18:30;;;;;;;2.80;1.20;;;;;;;;;;5137177;27;20102;-74
2022/06/11 10:21:03;;;;;;;1.75;1.20;;;;;;;;;;5135257;27;20023;-74
2022/06/11 10:23:45;;;;;;;1.00;1.00;;;;;;;;;;5135859;27;20039;-73
2022/06/11 10:26:17;;;;;;;1.30;1.20;;;;;;;;;;5135711;27;20027;-73
2022/06/11 10:29:06;;;;;;;1.77;1.23;;;;;;;;;;5135588;27;20023;-74
2022/06/11 10:31:34;;;;;;;1.20;1.10;;;;;;;;;;5135669;27;20035;-72
2022/06/11 10:34:03;;;;;;;0.82;0.82;;;;;;;;;;5135735;27;20019;-74
2022/06/11 10:36:37;;;;;;;1.10;1.10;;;;;;;;;;5135546;27;20045;-73
2022/06/11 10:39:09;;;;;;;2.25;1.48;;;;;;;;;;5135474;27;20486;-72
2022/06/11 10:41:51;;;;;;;3.13;0.90;;;;;;;;;;5135351;27;20462;-71
2022/06/11 10:44:29;;;;;;;1.17;0.90;;;;;;;;;;5135347;27;20034;-71
2022/06/11 10:46:56;;;;;;;5.88;1.25;;;;;;;;;;5135283;27;20019;-71
2022/06/11 10:49:24;;;;;;;4.25;1.25;;;;;;;;;;5135366;27;20363;-72
2022/06/11 10:51:56;;;;;;;1.67;1.15;;;;;;;;;;5135564;27;20023;-70
2022/06/11 10:54:24;;;;;;;1.88;1.10;;;;;;;;;;5135373;27;20393;-71
2022/06/11 10:56:51;;;;;;;1.13;1.13;;;;;;;;;;5135218;27;20106;-71
2022/06/11 10:59:29;;;;;;;1.27;0.70;;;;;;;;;;5135046;27;20041;-70
2022/06/11 11:02:13;;;;;;;1.27;1.17;;;;;;;;;;5135260;27;20046;-73
2022/06/11 11:04:40;;;;;;;1.20;1.20;;;;;;;;;;5135022;27;20029;-71
2022/06/11 11:07:24;;;;;;;1.88;1.02;;;;;;;;;;5134988;27;20407;-71
2022/06/11 11:09:50;;;;;;;1.55;1.23;;;;;;;;;;5134828;27;20463;-72
2022/06/11 11:12:29;;;;;;;1.20;1.10;;;;;;;;;;5134862;27;20008;-72
2022/06/11 11:15:00;;;;;;;1.00;1.00;;;;;;;;;;5134801;27;20028;-71
2022/06/11 11:17:26;;;;;;;1.08;1.08;;;;;;;;;;5134752;27;20019;-73
2022/06/11 11:22:40;;;;;;;1.10;1.10;;;;;;;;;;5134585;27;20039;-73
2022/06/11 11:25:10;;;;;;;2.78;1.20;;;;;;;;;;5134632;27;20029;-73
2022/06/11 11:27:43;;;;;;;0.90;0.90;;;;;;;;;;5134609;27;20539;-74
2022/06/11 11:30:14;;;;;;;1.10;1.00;;;;;;;;;;5134336;27;20039;-74
2022/06/11 11:32:41;;;;;;;1.88;1.10;;;;;;;;;;5134455;27;20031;-73
2022/06/11 11:35:18;;;;;;;2.40;1.58;;;;;;;;;;5134436;27;20073;-73
2022/06/11 11:37:44;;;;;;;1.33;1.10;;;;;;;;;;5134381;27;20076;-74
2022/06/11 11:40:28;;;;;;;1.55;1.45;;;;;;;;;;5134327;27;20023;-73
2022/06/11 11:42:57;;;;;;;1.00;1.00;;;;;;;;;;5134154;27;20103;-74
2022/06/11 11:45:26;;;;;;;1.30;1.20;;;;;;;;;;5134216;27;20114;-72
2022/06/11 11:47:54;;;;;;;2.38;1.00;;;;;;;;;;5115659;27;20117;-74
2022/06/11 11:50:24;;;;;;;4.05;1.40;;;;;;;;;;5134400;27;20022;-73
2022/06/11 11:52:55;;;;;;;2.40;1.47;;;;;;;;;;5134217;27;20024;-74
2022/06/11 11:55:26;;;;;;;1.80;1.40;;;;;;;;;;5134101;27;20109;-73
2022/06/11 11:57:58;;;;;;;1.08;1.02;;;;;;;;;;5134020;27;20027;-73
2022/06/11 12:00:30;;;;;;;0.90;0.90;;;;;;;;;;5133883;27;20122;-73
2022/06/11 12:03:05;;;;;;;2.47;1.30;;;;;;;;;;5133894;27;20454;-72
2022/06/11 12:05:39;;;;;;;1.15;1.05;;;;;;;;;;5133818;27;20177;-74
2022/06/11 12:08:12;;;;;;;2.45;1.55;;;;;;;;;;5115059;27;20027;-73
2022/06/11 12:10:39;;;;;;;1.73;1.40;;;;;;;;;;5134616;27;20023;-74
2022/06/11 12:13:36;;;;;;;4.10;1.70;;;;;;;;;;5134460;27;20090;-74
2022/06/11 12:16:04;;;;;;;1.30;1.17;;;;;;;;;;5088706;27;20043;-74
2022/06/11 12:18:48;;;;;;;1.05;1.05;;;;;;;;;;5134462;27;20034;-73
2022/06/11 12:21:15;;;;;;;2.45;1.30;;;;;;;;;;5134186;27;20076;-72
2022/06/11 12:23:45;;;;;;;1.58;1.45;;;;;;;;;;5133819;27;20023;-74
2022/06/11 12:26:18;;;;;;;1.02;1.02;;;;;;;;;;5132568;27;20057;-74
2022/06/11 12:28:48;;;;;;;2.00;1.73;;;;;;;;;;5133194;27;20035;-74
2022/06/11 12:31:13;;;;;;;1.40;1.30;;;;;;;;;;5131728;27;20031;-72
2022/06/11 12:33:42;;;;;;;2.10;1.50;;;;;;;;;;5132993;27;20023;-71
2022/06/11 12:36:11;;;;;;;3.50;1.60;;;;;;;;;;5134382;28;20116;-71
2022/06/11 12:38:48;;;;;;;1.30;1.20;;;;;;;;;;5134705;28;20023;-72
2022/06/11 12:41:16;;;;;;;1.52;1.35;;;;;;;;;;5134470;28;20119;-72
2022/06/11 12:43:47;;;;;;;1.50;1.40;;;;;;;;;;5134234;28;20019;-72
2022/06/11 12:46:17;;;;;;;5.40;2.08;;;;;;;;;;5134209;28;20035;-70
2022/06/11 12:48:48;;;;;;;2.33;1.60;;;;;;;;;;5134104;28;20412;-72
2022/06/11 12:51:22;;;;;;;7.22;2.20;;;;;;;;;;5134103;28;20442;-72
2022/06/11 12:54:02;;;;;;;1.50;1.40;;;;;;;;;;5134300;28;20027;-72
2022/06/11 12:56:36;;;;;;;55.42;10.25;;;;;;;;;;5134438;28;20038;-71
2022/06/11 12:59:02;;;;;;;3.63;1.70;;;;;;;;;;5134280;28;20047;-72
2022/06/11 13:01:30;;;;;;;7.22;2.65;;;;;;;;;;5134432;28;20019;-72
2022/06/11 13:03:55;;;;;;;2.42;1.40;;;;;;;;;;5134293;28;20023;-72
2022/06/11 13:06:40;;;;;;;13.13;3.77;;;;;;;;;;5133836;28;20080;-73
2022/06/11 13:09:15;;;;;;;2.53;1.58;;;;;;;;;;5133677;28;20268;-72
2022/06/11 13:11:47;;;;;;;3.55;1.60;;;;;;;;;;5133820;28;20478;-71
2022/06/11 13:14:31;;;;;;;8.95;2.10;;;;;;;;;;5115158;28;20058;-71
2022/06/11 13:17:02;;;;;;;5.32;2.30;;;;;;;;;;5133476;28;20035;-72
2022/06/11 13:19:33;;;;;;;3.13;1.80;;;;;;;;;;5133343;28;20050;-72
2022/06/11 13:21:59;;;;;;;4.70;1.80;;;;;;;;;;5133338;28;20124;-69
2022/06/11 13:24:34;;;;;;;3.00;1.60;;;;;;;;;;5133484;28;20451;-70
2022/06/11 13:27:06;;;;;;;1.38;1.20;;;;;;;;;;5133556;28;20350;-70
2022/06/11 13:29:48;;;;;;;2.72;1.70;;;;;;;;;;5132571;28;20054;-72
2022/06/11 13:32:32;;;;;;;1.95;1.20;;;;;;;;;;5133416;28;20447;-70
2022/06/11 13:35:00;;;;;;;2.85;1.55;;;;;;;;;;5133501;28;20050;-72
2022/06/11 13:37:26;;;;;;;3.63;1.60;;;;;;;;;;5133195;28;20022;-70
2022/06/11 13:40:06;;;;;;;2.63;1.50;;;;;;;;;;5134668;27;20031;-71
2022/06/11 13:43:03;;;;;;;1.75;1.33;;;;;;;;;;5137226;27;20023;-72
2022/06/11 13:45:44;;;;;;;2.28;1.60;;;;;;;;;;5090192;27;20050;-72
2022/06/11 13:48:10;;;;;;;;;;;;;;;;;;5119111;27;20431;-71
2022/06/11 13:50:55;;;;;;;6.75;2.08;;;;;;;;;;5136511;27;19904;-74
2022/06/11 13:56:23;;;;;;;1.55;1.40;;;;;;;;;;5136604;27;20064;-75
2022/06/11 13:58:49;;;;;;;;;;;;;;;;;;5137326;27;20379;-72
2022/06/11 14:01:47;;;;;;;1.50;1.40;;;;;;;;;;5136225;27;19936;-72
2022/06/11 14:04:12;;;;;;;2.05;1.63;;;;;;;;;;5118128;27;20527;-72
2022/06/11 14:06:41;;;;;;;5.23;2.27;;;;;;;;;;5136781;27;20015;-71
2022/06/11 14:10:20;;;;;;;3.50;1.50;;;;;;;;;;5136579;27;20264;-71
2022/06/11 14:12:04;;;;;;;2.80;1.63;;;;;;;;;;5136217;27;20028;-71
2022/06/11 14:14:32;;;;;;;8.05;2.38;;;;;;;;;;5136289;27;20055;-68
2022/06/11 14:16:58;;;;;;;3.38;1.90;;;;;;;;;;5135985;27;20019;-70
2022/06/11 14:19:23;;;;;;;1.95;1.58;;;;;;;;;;5136106;27;20035;-70
2022/06/11 14:21:52;;;;;;;3.50;1.70;;;;;;;;;;5136082;27;20075;-70
2022/06/11 14:24:42;;;;;;;1.98;1.70;;;;;;;;;;5136492;27;20280;-70
2022/06/11 14:27:27;;;;;;;1.60;1.30;;;;;;;;;;5135862;27;20091;-70
2022/06/11 14:30:00;;;;;;;1.60;1.50;;;;;;;;;;5114116;28;20043;-70
2022/06/11 14:32:29;;;;;;;1.40;1.25;;;;;;;;;;5115657;28;20482;-72
2022/06/11 14:34:58;;;;;;;2.20;1.52;;;;;;;;;;5115853;28;20065;-72
2022/06/11 14:37:25;;;;;;;5.47;1.67;;;;;;;;;;5115649;28;20028;-72
2022/06/11 14:40:05;;;;;;;2.40;1.40;;;;;;;;;;5114161;28;20026;-72
2022/06/11 14:42:50;;;;;;;1.80;1.45;;;;;;;;;;5115639;28;20028;-72
2022/06/11 14:45:35;;;;;;;2.55;1.45;;;;;;;;;;5115402;28;20024;-72
2022/06/11 14:48:03;;;;;;;36.88;7.20;;;;;;;;;;5115059;28;20428;-72
2022/06/11 14:50:40;;;;;;;1.40;1.23;;;;;;;;;;5114595;28;20061;-72
2022/06/11 14:53:11;;;;;;;7.03;2.63;;;;;;;;;;5113277;28;20390;-72
2022/06/11 14:55:38;;;;;;;3.97;2.10;;;;;;;;;;5115054;28;20102;-72
2022/06/11 14:58:18;;;;;;;1.98;1.40;;;;;;;;;;5115090;28;20068;-73
2022/06/11 15:00:49;;;;;;;2.95;1.33;;;;;;;;;;5114759;28;20054;-72
2022/06/11 15:03:28;;;;;;;2.58;1.88;;;;;;;;;;5115045;28;20463;-72
2022/06/11 15:06:12;;;;;;;6.35;1.52;;;;;;;;;;5113975;28;20043;-73
2022/06/11 15:08:42;;;;;;;3.65;1.50;;;;;;;;;;5115184;28;20035;-72